Aviation Digital Data Service (ADDS)

Output produced by METARs form (0152 UTC 22 February 2019)
found at http://www.aviationweather.gov/metar/data/
 
METAR text: KIDA 220053Z AUTO 36011KT 10SM CLR M09/M14 A2979 RMK AO2 SLP161 T10891144
Conditions at: KIDA (IDAHO FALLS , ID, US) observed 0053 UTC 22 February 2019
Temperature: -8.9°C (16°F)
Dewpoint: -14.4°C ( 6°F) [RH = 64%]
Pressure (altimeter): 29.79 inches Hg (1008.9 mb)
[Sea-level pressure: 1016.1 mb]
Winds: from the N (360 degrees) at 13 MPH (11 knots; 5.7 m/s)
Visibility: 10 or more miles (16+ km)
Ceiling: at least 12,000 feet AGL
Clouds: sky clear below 12,000 feet AGL
Weather: automated observation with no human augmentation;
there may or may not be significant weather present at this time

METAR text: KIDA 212353Z AUTO 36009KT 10SM CLR M07/M13 A2979 RMK AO2 SLP149 T10671128 11044 21094 53006
Conditions at: KIDA (IDAHO FALLS , ID, US) observed 2353 UTC 21 February 2019
Temperature: -6.7°C (20°F)
Dewpoint: -12.8°C ( 9°F) [RH = 62%]
Pressure (altimeter): 29.79 inches Hg (1008.9 mb)
[Sea-level pressure: 1014.9 mb]
Winds: from the N (360 degrees) at 10 MPH (9 knots; 4.6 m/s)
Visibility: 10 or more miles (16+ km)
Ceiling: at least 12,000 feet AGL
Clouds: sky clear below 12,000 feet AGL
Weather: automated observation with no human augmentation;
there may or may not be significant weather present at this time

METAR text: KIDA 212253Z AUTO 36010KT 10SM CLR M06/M12 A2978 RMK AO2 SLP147 T10561117
Conditions at: KIDA (IDAHO FALLS , ID, US) observed 2253 UTC 21 February 2019
Temperature: -5.6°C (22°F)
Dewpoint: -11.7°C (11°F) [RH = 62%]
Pressure (altimeter): 29.78 inches Hg (1008.5 mb)
[Sea-level pressure: 1014.7 mb]
Winds: from the N (360 degrees) at 12 MPH (10 knots; 5.1 m/s)
Visibility: 10 or more miles (16+ km)
Ceiling: at least 12,000 feet AGL
Clouds: sky clear below 12,000 feet AGL
Weather: automated observation with no human augmentation;
there may or may not be significant weather present at this time

METAR text: KIDA 212153Z 01012KT 10SM CLR M05/M12 A2977 RMK AO2 SLP140 T10501117
Conditions at: KIDA (IDAHO FALLS , ID, US) observed 2153 UTC 21 February 2019
Temperature: -5.0°C (23°F)
Dewpoint: -11.7°C (11°F) [RH = 59%]
Pressure (altimeter): 29.77 inches Hg (1008.2 mb)
[Sea-level pressure: 1014.0 mb]
Winds: from the N (10 degrees) at 14 MPH (12 knots; 6.2 m/s)
Visibility: 10 or more miles (16+ km)
Ceiling: at least 12,000 feet AGL
Clouds: sky clear below 12,000 feet AGL
Weather: no significant weather observed at this time

METAR text: KIDA 212053Z 02010KT 10SM SCT230 M05/M13 A2977 RMK AO2 SLP134 T10501128 58006
Conditions at: KIDA (IDAHO FALLS , ID, US) observed 2053 UTC 21 February 2019
Temperature: -5.0°C (23°F)
Dewpoint: -12.8°C ( 9°F) [RH = 54%]
Pressure (altimeter): 29.77 inches Hg (1008.2 mb)
[Sea-level pressure: 1013.4 mb]
Winds: from the NNE (20 degrees) at 12 MPH (10 knots; 5.1 m/s)
Visibility: 10 or more miles (16+ km)
Ceiling: at least 12,000 feet AGL
Clouds: scattered clouds at 23000 feet AGL
Weather: no significant weather observed at this time

METAR text: KIDA 211953Z 03010KT 10SM SCT250 M06/M14 A2978 RMK AO2 SLP137 T10611139
Conditions at: KIDA (IDAHO FALLS , ID, US) observed 1953 UTC 21 February 2019
Temperature: -6.1°C (21°F)
Dewpoint: -13.9°C ( 7°F) [RH = 54%]
Pressure (altimeter): 29.78 inches Hg (1008.5 mb)
[Sea-level pressure: 1013.7 mb]
Winds: from the NNE (30 degrees) at 12 MPH (10 knots; 5.1 m/s)
Visibility: 10 or more miles (16+ km)
Ceiling: at least 12,000 feet AGL
Clouds: scattered clouds at 25000 feet AGL
Weather: no significant weather observed at this time

METAR text: KIDA 211853Z 04010KT 10SM CLR M08/M15 A2979 RMK AO2 SLP149 T10831150
Conditions at: KIDA (IDAHO FALLS , ID, US) observed 1853 UTC 21 February 2019
Temperature: -8.3°C (17°F)
Dewpoint: -15.0°C ( 5°F) [RH = 58%]
Pressure (altimeter): 29.79 inches Hg (1008.9 mb)
[Sea-level pressure: 1014.9 mb]
Winds: from the NE (40 degrees) at 12 MPH (10 knots; 5.1 m/s)
Visibility: 10 or more miles (16+ km)
Ceiling: at least 12,000 feet AGL
Clouds: sky clear below 12,000 feet AGL
Weather: no significant weather observed at this time

METAR text: KIDA 211753Z 03013KT 10SM SCT250 M09/M16 A2979 RMK AO2 SLP156 T10941161 11094 21189 50005
Conditions at: KIDA (IDAHO FALLS , ID, US) observed 1753 UTC 21 February 2019
Temperature: -9.4°C (15°F)
Dewpoint: -16.1°C ( 3°F) [RH = 58%]
Pressure (altimeter): 29.79 inches Hg (1008.9 mb)
[Sea-level pressure: 1015.6 mb]
Winds: from the NNE (30 degrees) at 15 MPH (13 knots; 6.7 m/s)
Visibility: 10 or more miles (16+ km)
Ceiling: at least 12,000 feet AGL
Clouds: scattered clouds at 25000 feet AGL
Weather: no significant weather observed at this time

METAR text: KIDA 211653Z 03010KT 10SM SCT250 M12/M17 A2979 RMK AO2 SLP155 T11221172
Conditions at: KIDA (IDAHO FALLS , ID, US) observed 1653 UTC 21 February 2019
Temperature: -12.2°C (10°F)
Dewpoint: -17.2°C ( 1°F) [RH = 66%]
Pressure (altimeter): 29.79 inches Hg (1008.9 mb)
[Sea-level pressure: 1015.5 mb]
Winds: from the NNE (30 degrees) at 12 MPH (10 knots; 5.1 m/s)
Visibility: 10 or more miles (16+ km)
Ceiling: at least 12,000 feet AGL
Clouds: scattered clouds at 25000 feet AGL
Weather: no significant weather observed at this time

METAR text: KIDA 211553Z 36011KT 10SM FEW150 SCT250 M15/M19 A2979 RMK AO2 SLP157 T11501189
Conditions at: KIDA (IDAHO FALLS , ID, US) observed 1553 UTC 21 February 2019
Temperature: -15.0°C ( 5°F)
Dewpoint: -18.9°C (-2°F) [RH = 72%]
Pressure (altimeter): 29.79 inches Hg (1008.9 mb)
[Sea-level pressure: 1015.7 mb]
Winds: from the N (360 degrees) at 13 MPH (11 knots; 5.7 m/s)
Visibility: 10 or more miles (16+ km)
Ceiling: at least 12,000 feet AGL
Clouds: few clouds at 15000 feet AGL
scattered clouds at 25000 feet AGL
Weather: no significant weather observed at this time

METAR text: KIDA 211453Z 01009KT 10SM FEW150 SCT250 M17/M20 A2977 RMK AO2 SLP157 T11671200 51011
Conditions at: KIDA (IDAHO FALLS , ID, US) observed 1453 UTC 21 February 2019
Temperature: -16.7°C ( 2°F)
Dewpoint: -20.0°C (-4°F) [RH = 76%]
Pressure (altimeter): 29.77 inches Hg (1008.2 mb)
[Sea-level pressure: 1015.7 mb]
Winds: from the N (10 degrees) at 10 MPH (9 knots; 4.6 m/s)
Visibility: 10 or more miles (16+ km)
Ceiling: at least 12,000 feet AGL
Clouds: few clouds at 15000 feet AGL
scattered clouds at 25000 feet AGL
Weather: no significant weather observed at this time

METAR text: KIDA 211353Z 34005KT 10SM SCT200 M18/M21 A2977 RMK AO2 SLP157 T11831206
Conditions at: KIDA (IDAHO FALLS , ID, US) observed 1353 UTC 21 February 2019
Temperature: -18.3°C (-1°F)
Dewpoint: -20.6°C (-5°F) [RH = 82%]
Pressure (altimeter): 29.77 inches Hg (1008.2 mb)
[Sea-level pressure: 1015.7 mb]
Winds: from the NNW (340 degrees) at 6 MPH (5 knots; 2.6 m/s)
Visibility: 10 or more miles (16+ km)
Ceiling: at least 12,000 feet AGL
Clouds: scattered clouds at 20000 feet AGL
Weather: no significant weather observed at this time

METAR text: KIDA 211253Z AUTO 36006KT 10SM CLR M17/M19 A2976 RMK AO2 SLP146 T11671189
Conditions at: KIDA (IDAHO FALLS , ID, US) observed 1253 UTC 21 February 2019
Temperature: -16.7°C ( 2°F)
Dewpoint: -18.9°C (-2°F) [RH = 83%]
Pressure (altimeter): 29.76 inches Hg (1007.9 mb)
[Sea-level pressure: 1014.6 mb]
Winds: from the N (360 degrees) at 7 MPH (6 knots; 3.1 m/s)
Visibility: 10 or more miles (16+ km)
Ceiling: at least 12,000 feet AGL
Clouds: sky clear below 12,000 feet AGL
Weather: automated observation with no human augmentation;
there may or may not be significant weather present at this time

METAR text: KIDA 211153Z AUTO 01009KT 10SM CLR M14/M17 A2974 RMK AO2 SLP129 70001 I6000 T11391167 11106 21172 51001
Conditions at: KIDA (IDAHO FALLS , ID, US) observed 1153 UTC 21 February 2019
Temperature: -13.9°C ( 7°F)
Dewpoint: -16.7°C ( 2°F) [RH = 79%]
Pressure (altimeter): 29.74 inches Hg (1007.2 mb)
[Sea-level pressure: 1012.9 mb]
Winds: from the N (10 degrees) at 10 MPH (9 knots; 4.6 m/s)
Visibility: 10 or more miles (16+ km)
Ceiling: at least 12,000 feet AGL
Clouds: sky clear below 12,000 feet AGL
Weather: automated observation with no human augmentation;
there may or may not be significant weather present at this time

METAR text: KIDA 211053Z AUTO 02006KT 10SM CLR M16/M18 A2973 RMK AO2 SLP133 T11561178
Conditions at: KIDA (IDAHO FALLS , ID, US) observed 1053 UTC 21 February 2019
Temperature: -15.6°C ( 4°F)
Dewpoint: -17.8°C (-0°F) [RH = 83%]
Pressure (altimeter): 29.73 inches Hg (1006.9 mb)
[Sea-level pressure: 1013.3 mb]
Winds: from the NNE (20 degrees) at 7 MPH (6 knots; 3.1 m/s)
Visibility: 10 or more miles (16+ km)
Ceiling: at least 12,000 feet AGL
Clouds: sky clear below 12,000 feet AGL
Weather: automated observation with no human augmentation;
there may or may not be significant weather present at this time

METAR text: KIDA 210953Z AUTO 02005KT 10SM CLR M14/M16 A2974 RMK AO2 SLP133 I1000 T11391156
Conditions at: KIDA (IDAHO FALLS , ID, US) observed 0953 UTC 21 February 2019
Temperature: -13.9°C ( 7°F)
Dewpoint: -15.6°C ( 4°F) [RH = 87%]
Pressure (altimeter): 29.74 inches Hg (1007.2 mb)
[Sea-level pressure: 1013.3 mb]
Winds: from the NNE (20 degrees) at 6 MPH (5 knots; 2.6 m/s)
Visibility: 10 or more miles (16+ km)
Ceiling: at least 12,000 feet AGL
Clouds: sky clear below 12,000 feet AGL
Weather: automated observation with no human augmentation;
there may or may not be significant weather present at this time

METAR text: KIDA 210853Z AUTO 02007KT 9SM CLR M12/M14 A2973 RMK AO2 SLP125 T11221144 52003
Conditions at: KIDA (IDAHO FALLS , ID, US) observed 0853 UTC 21 February 2019
Temperature: -12.2°C (10°F)
Dewpoint: -14.4°C ( 6°F) [RH = 84%]
Pressure (altimeter): 29.73 inches Hg (1006.9 mb)
[Sea-level pressure: 1012.5 mb]
Winds: from the NNE (20 degrees) at 8 MPH (7 knots; 3.6 m/s)
Visibility: 9 miles (14 km)
Ceiling: at least 12,000 feet AGL
Clouds: sky clear below 12,000 feet AGL
Weather: automated observation with no human augmentation;
there may or may not be significant weather present at this time

METAR text: KIDA 210830Z AUTO 04006KT 8SM FEW014 M12/M14 A2973 RMK AO2 T11221139
Conditions at: KIDA (IDAHO FALLS , ID, US) observed 0830 UTC 21 February 2019
Temperature: -12.2°C (10°F)
Dewpoint: -13.9°C ( 7°F) [RH = 87%]
Pressure (altimeter): 29.73 inches Hg (1006.9 mb)
Winds: from the NE (40 degrees) at 7 MPH (6 knots; 3.1 m/s)
Visibility: 8 miles (13 km)
Ceiling: at least 12,000 feet AGL
Clouds: few clouds at 1400 feet AGL
Weather: automated observation with no human augmentation;
there may or may not be significant weather present at this time

METAR text: KIDA 210753Z AUTO 04005KT 8SM OVC027 M11/M13 A2973 RMK AO2 SLP125 T11061128
Conditions at: KIDA (IDAHO FALLS , ID, US) observed 0753 UTC 21 February 2019
Temperature: -10.6°C (13°F)
Dewpoint: -12.8°C ( 9°F) [RH = 84%]
Pressure (altimeter): 29.73 inches Hg (1006.9 mb)
[Sea-level pressure: 1012.5 mb]
Winds: from the NE (40 degrees) at 6 MPH (5 knots; 2.6 m/s)
Visibility: 8 miles (13 km)
Ceiling: 2700 feet AGL
Clouds: overcast cloud deck at 2700 feet AGL
Weather: automated observation with no human augmentation;
there may or may not be significant weather present at this time

METAR text: KIDA 210653Z AUTO 05004KT 10SM FEW019 BKN027 OVC080 M12/M14 A2972 RMK AO2 SLP127 T11171139 410671161
Conditions at: KIDA (IDAHO FALLS , ID, US) observed 0653 UTC 21 February 2019
Temperature: -11.7°C (11°F)
Dewpoint: -13.9°C ( 7°F) [RH = 84%]
Pressure (altimeter): 29.72 inches Hg (1006.5 mb)
[Sea-level pressure: 1012.7 mb]
Winds: from the NE (50 degrees) at 5 MPH (4 knots; 2.1 m/s)
Visibility: 10 or more miles (16+ km)
Ceiling: 2700 feet AGL
Clouds: few clouds at 1900 feet AGL
broken clouds at 2700 feet AGL
overcast cloud deck at 8000 feet AGL
Weather: automated observation with no human augmentation;
there may or may not be significant weather present at this time

METAR text: KIDA 210649Z AUTO 04005KT 10SM FEW019 BKN027 OVC080 M12/M14 A2972 RMK AO2
Conditions at: KIDA (IDAHO FALLS , ID, US) observed 0649 UTC 21 February 2019
Temperature: -12.0°C (10°F)
Dewpoint: -14.0°C ( 7°F) [RH = 85%]
Pressure (altimeter): 29.72 inches Hg (1006.5 mb)
Winds: from the NE (40 degrees) at 6 MPH (5 knots; 2.6 m/s)
Visibility: 10 or more miles (16+ km)
Ceiling: 2700 feet AGL
Clouds: few clouds at 1900 feet AGL
broken clouds at 2700 feet AGL
overcast cloud deck at 8000 feet AGL
Weather: automated observation with no human augmentation;
there may or may not be significant weather present at this time

METAR text: KIDA 210553Z AUTO 02006KT 10SM FEW075 M14/M16 A2971 RMK AO2 SLP132 I6001 T11391156 11067 21139 53009
Conditions at: KIDA (IDAHO FALLS , ID, US) observed 0553 UTC 21 February 2019
Temperature: -13.9°C ( 7°F)
Dewpoint: -15.6°C ( 4°F) [RH = 87%]
Pressure (altimeter): 29.71 inches Hg (1006.2 mb)
[Sea-level pressure: 1013.2 mb]
Winds: from the NNE (20 degrees) at 7 MPH (6 knots; 3.1 m/s)
Visibility: 10 or more miles (16+ km)
Ceiling: at least 12,000 feet AGL
Clouds: few clouds at 7500 feet AGL
Weather: automated observation with no human augmentation;
there may or may not be significant weather present at this time

METAR text: KIDA 210453Z AUTO 02007KT 9SM FEW021 M11/M12 A2970 RMK AO2 SLP122 I1001 T11061122
Conditions at: KIDA (IDAHO FALLS , ID, US) observed 0453 UTC 21 February 2019
Temperature: -10.6°C (13°F)
Dewpoint: -12.2°C (10°F) [RH = 88%]
Pressure (altimeter): 29.70 inches Hg (1005.8 mb)
[Sea-level pressure: 1012.2 mb]
Winds: from the NNE (20 degrees) at 8 MPH (7 knots; 3.6 m/s)
Visibility: 9 miles (14 km)
Ceiling: at least 12,000 feet AGL
Clouds: few clouds at 2100 feet AGL
Weather: automated observation with no human augmentation;
there may or may not be significant weather present at this time

METAR text: KIDA 210402Z AUTO 02006KT 10SM FEW013 SCT030 BKN080 M10/M12 A2969 RMK AO2 T11001122
Conditions at: KIDA (IDAHO FALLS , ID, US) observed 0402 UTC 21 February 2019
Temperature: -10.0°C (14°F)
Dewpoint: -12.2°C (10°F) [RH = 84%]
Pressure (altimeter): 29.69 inches Hg (1005.5 mb)
Winds: from the NNE (20 degrees) at 7 MPH (6 knots; 3.1 m/s)
Visibility: 10 or more miles (16+ km)
Ceiling: 8000 feet AGL
Clouds: few clouds at 1300 feet AGL
scattered clouds at 3000 feet AGL
broken clouds at 8000 feet AGL
Weather: automated observation with no human augmentation;
there may or may not be significant weather present at this time

METAR text: KIDA 210353Z AUTO 02005KT 10SM SCT013 BKN029 BKN080 M10/M12 A2969 RMK AO2 SLP123 I1000 T11001122
Conditions at: KIDA (IDAHO FALLS , ID, US) observed 0353 UTC 21 February 2019
Temperature: -10.0°C (14°F)
Dewpoint: -12.2°C (10°F) [RH = 84%]
Pressure (altimeter): 29.69 inches Hg (1005.5 mb)
[Sea-level pressure: 1012.3 mb]
Winds: from the NNE (20 degrees) at 6 MPH (5 knots; 2.6 m/s)
Visibility: 10 or more miles (16+ km)
Ceiling: 2900 feet AGL
Clouds: scattered clouds at 1300 feet AGL
broken clouds at 2900 feet AGL
broken clouds at 8000 feet AGL
Weather: automated observation with no human augmentation;
there may or may not be significant weather present at this time

METAR text: KIDA 210253Z 04004KT 10SM OVC026 M11/M12 A2968 RMK AO2 SLP118 T11061122 53008
Conditions at: KIDA (IDAHO FALLS , ID, US) observed 0253 UTC 21 February 2019
Temperature: -10.6°C (13°F)
Dewpoint: -12.2°C (10°F) [RH = 88%]
Pressure (altimeter): 29.68 inches Hg (1005.2 mb)
[Sea-level pressure: 1011.8 mb]
Winds: from the NE (40 degrees) at 5 MPH (4 knots; 2.1 m/s)
Visibility: 10 or more miles (16+ km)
Ceiling: 2600 feet AGL
Clouds: overcast cloud deck at 2600 feet AGL
Weather: no significant weather observed at this time

METAR text: KIDA 210153Z 00000KT 10SM SCT013 BKN024 M09/M12 A2967 RMK AO2 SLP111 T10941122
Conditions at: KIDA (IDAHO FALLS , ID, US) observed 0153 UTC 21 February 2019
Temperature: -9.4°C (15°F)
Dewpoint: -12.2°C (10°F) [RH = 80%]
Pressure (altimeter): 29.67 inches Hg (1004.8 mb)
[Sea-level pressure: 1011.1 mb]
Winds: calm
Visibility: 10 or more miles (16+ km)
Ceiling: 2400 feet AGL
Clouds: scattered clouds at 1300 feet AGL
broken clouds at 2400 feet AGL
Weather: no significant weather observed at this time

METAR text: KIDA 210053Z 04004KT 10SM SCT015 OVC024 M08/M12 A2966 RMK AO2 SLP103 T10781117
Conditions at: KIDA (IDAHO FALLS , ID, US) observed 0053 UTC 21 February 2019
Temperature: -7.8°C (18°F)
Dewpoint: -11.7°C (11°F) [RH = 74%]
Pressure (altimeter): 29.66 inches Hg (1004.5 mb)
[Sea-level pressure: 1010.3 mb]
Winds: from the NE (40 degrees) at 5 MPH (4 knots; 2.1 m/s)
Visibility: 10 or more miles (16+ km)
Ceiling: 2400 feet AGL
Clouds: scattered clouds at 1500 feet AGL
overcast cloud deck at 2400 feet AGL
Weather: no significant weather observed at this time

METAR text: KIDA 202353Z 03005KT 10SM OVC021 M07/M11 A2966 RMK AO2 SLP096 60000 T10671106 11067 21111 53000
Conditions at: KIDA (IDAHO FALLS , ID, US) observed 2353 UTC 20 February 2019
Temperature: -6.7°C (20°F)
Dewpoint: -10.6°C (13°F) [RH = 74%]
Pressure (altimeter): 29.66 inches Hg (1004.5 mb)
[Sea-level pressure: 1009.6 mb]
Winds: from the NNE (30 degrees) at 6 MPH (5 knots; 2.6 m/s)
Visibility: 10 or more miles (16+ km)
Ceiling: 2100 feet AGL
Clouds: overcast cloud deck at 2100 feet AGL
Weather: no significant weather observed at this time

METAR text: KIDA 202253Z 36003KT 10SM OVC021 M07/M11 A2965 RMK AO2 SLP098 T10721106
Conditions at: KIDA (IDAHO FALLS , ID, US) observed 2253 UTC 20 February 2019
Temperature: -7.2°C (19°F)
Dewpoint: -10.6°C (13°F) [RH = 77%]
Pressure (altimeter): 29.65 inches Hg (1004.1 mb)
[Sea-level pressure: 1009.8 mb]
Winds: from the N (360 degrees) at 3 MPH (3 knots; 1.5 m/s)
Visibility: 10 or more miles (16+ km)
Ceiling: 2100 feet AGL
Clouds: overcast cloud deck at 2100 feet AGL
Weather: no significant weather observed at this time

METAR text: KIDA 202153Z 00000KT 10SM OVC016 M08/M12 A2965 RMK AO2 SLP097 T10781117
Conditions at: KIDA (IDAHO FALLS , ID, US) observed 2153 UTC 20 February 2019
Temperature: -7.8°C (18°F)
Dewpoint: -11.7°C (11°F) [RH = 74%]
Pressure (altimeter): 29.65 inches Hg (1004.1 mb)
[Sea-level pressure: 1009.7 mb]
Winds: calm
Visibility: 10 or more miles (16+ km)
Ceiling: 1600 feet AGL
Clouds: overcast cloud deck at 1600 feet AGL
Weather: no significant weather observed at this time

METAR text: KIDA 202124Z 34003KT 10SM BKN017 BKN085 M08/M12 A2965 RMK AO2 T10831117
Conditions at: KIDA (IDAHO FALLS , ID, US) observed 2124 UTC 20 February 2019
Temperature: -8.3°C (17°F)
Dewpoint: -11.7°C (11°F) [RH = 76%]
Pressure (altimeter): 29.65 inches Hg (1004.1 mb)
Winds: from the NNW (340 degrees) at 3 MPH (3 knots; 1.5 m/s)
Visibility: 10 or more miles (16+ km)
Ceiling: 1700 feet AGL
Clouds: broken clouds at 1700 feet AGL
broken clouds at 8500 feet AGL
Weather: no significant weather observed at this time

METAR text: KIDA 202122Z 34003KT 10SM SCT017 BKN080 M08/M12 A2965 RMK AO2 T10831117
Conditions at: KIDA (IDAHO FALLS , ID, US) observed 2122 UTC 20 February 2019
Temperature: -8.3°C (17°F)
Dewpoint: -11.7°C (11°F) [RH = 76%]
Pressure (altimeter): 29.65 inches Hg (1004.1 mb)
Winds: from the NNW (340 degrees) at 3 MPH (3 knots; 1.5 m/s)
Visibility: 10 or more miles (16+ km)
Ceiling: 8000 feet AGL
Clouds: scattered clouds at 1700 feet AGL
broken clouds at 8000 feet AGL
Weather: no significant weather observed at this time

METAR text: KIDA 202053Z 00000KT 10SM OVC028 M07/M11 A2965 RMK AO2 SNE20 SLP091 P0000 60000 T10721106 58004
Conditions at: KIDA (IDAHO FALLS , ID, US) observed 2053 UTC 20 February 2019
Temperature: -7.2°C (19°F)
Dewpoint: -10.6°C (13°F) [RH = 77%]
Pressure (altimeter): 29.65 inches Hg (1004.1 mb)
[Sea-level pressure: 1009.1 mb]
Winds: calm
Visibility: 10 or more miles (16+ km)
Ceiling: 2800 feet AGL
Clouds: overcast cloud deck at 2800 feet AGL
Weather: no significant weather observed at this time

METAR text: KIDA 202013Z 00000KT 4SM -SN OVC027 M08/M12 A2966 RMK AO2 P0000 T10831117
Conditions at: KIDA (IDAHO FALLS , ID, US) observed 2013 UTC 20 February 2019
Temperature: -8.3°C (17°F)
Dewpoint: -11.7°C (11°F) [RH = 76%]
Pressure (altimeter): 29.66 inches Hg (1004.5 mb)
Winds: calm
Visibility: 4 miles ( 6 km)
Ceiling: 2700 feet AGL
Clouds: overcast cloud deck at 2700 feet AGL
Weather: -SN  (light snow)

METAR text: KIDA 201953Z 33003KT 2 1/2SM -SN OVC030 M09/M12 A2967 RMK AO2 SLP097 P0000 T10891117
Conditions at: KIDA (IDAHO FALLS , ID, US) observed 1953 UTC 20 February 2019
Temperature: -8.9°C (16°F)
Dewpoint: -11.7°C (11°F) [RH = 80%]
Pressure (altimeter): 29.67 inches Hg (1004.8 mb)
[Sea-level pressure: 1009.7 mb]
Winds: from the NNW (330 degrees) at 3 MPH (3 knots; 1.5 m/s)
Visibility: 2.50 miles (4.02 km)
Ceiling: 3000 feet AGL
Clouds: overcast cloud deck at 3000 feet AGL
Weather: -SN  (light snow)

METAR text: KIDA 201940Z 00000KT 1SM R21/1800VP6000FT -SN BKN028 OVC033 M09/M12 A2967 RMK AO2 P0000 T10891117
Conditions at: KIDA (IDAHO FALLS , ID, US) observed 1940 UTC 20 February 2019
Temperature: -8.9°C (16°F)
Dewpoint: -11.7°C (11°F) [RH = 80%]
Pressure (altimeter): 29.67 inches Hg (1004.8 mb)
Winds: calm
Visibility: 1.00 miles (1.61 km)
Ceiling: 2800 feet AGL
Clouds: broken clouds at 2800 feet AGL
overcast cloud deck at 3300 feet AGL
Weather: -SN  (light snow)

METAR text: KIDA 201853Z 02003KT 4SM -SN OVC028 M09/M13 A2967 RMK AO2 SLP101 P0000 T10941128
Conditions at: KIDA (IDAHO FALLS , ID, US) observed 1853 UTC 20 February 2019
Temperature: -9.4°C (15°F)
Dewpoint: -12.8°C ( 9°F) [RH = 76%]
Pressure (altimeter): 29.67 inches Hg (1004.8 mb)
[Sea-level pressure: 1010.1 mb]
Winds: from the NNE (20 degrees) at 3 MPH (3 knots; 1.5 m/s)
Visibility: 4 miles ( 6 km)
Ceiling: 2800 feet AGL
Clouds: overcast cloud deck at 2800 feet AGL
Weather: -SN  (light snow)

METAR text: KIDA 201834Z 00000KT 4SM -SN BKN025 OVC030 M09/M12 A2967 RMK AO2 P0000 T10941122
Conditions at: KIDA (IDAHO FALLS , ID, US) observed 1834 UTC 20 February 2019
Temperature: -9.4°C (15°F)
Dewpoint: -12.2°C (10°F) [RH = 80%]
Pressure (altimeter): 29.67 inches Hg (1004.8 mb)
Winds: calm
Visibility: 4 miles ( 6 km)
Ceiling: 2500 feet AGL
Clouds: broken clouds at 2500 feet AGL
overcast cloud deck at 3000 feet AGL
Weather: -SN  (light snow)

METAR text: KIDA 201827Z COR 00000KT 2 1/2SM -SN BR OVC027 M10/M12 A2967 RMK AO2 P0000 T11001122
Conditions at: KIDA (IDAHO FALLS , ID, US) observed 1827 UTC 20 February 2019
Temperature: -10.0°C (14°F)
Dewpoint: -12.2°C (10°F) [RH = 84%]
Pressure (altimeter): 29.67 inches Hg (1004.8 mb)
Winds: calm
Visibility: 2.50 miles (4.02 km)
Ceiling: 2700 feet AGL
Clouds: overcast cloud deck at 2700 feet AGL
Weather: -SN BR  (light snow, mist)

METAR text: KIDA 201753Z 35003KT 1 1/2SM R21/6000VP6000FT -SN BR OVC020 M11/M13 A2966 RMK AO2 SLP101 P0000 60001 T11111133 11111 21156 51002
Conditions at: KIDA (IDAHO FALLS , ID, US) observed 1753 UTC 20 February 2019
Temperature: -11.1°C (12°F)
Dewpoint: -13.3°C ( 8°F) [RH = 84%]
Pressure (altimeter): 29.66 inches Hg (1004.5 mb)
[Sea-level pressure: 1010.1 mb]
Winds: from the N (350 degrees) at 3 MPH (3 knots; 1.5 m/s)
Visibility: 1.50 miles (2.41 km)
Ceiling: 2000 feet AGL
Clouds: overcast cloud deck at 2000 feet AGL
Weather: -SN BR  (light snow, mist)

METAR text: KIDA 201742Z 00000KT 1 1/2SM -SN BR BKN020 OVC026 M11/M13 A2966 RMK AO2 P0000 T11111133
Conditions at: KIDA (IDAHO FALLS , ID, US) observed 1742 UTC 20 February 2019
Temperature: -11.1°C (12°F)
Dewpoint: -13.3°C ( 8°F) [RH = 84%]
Pressure (altimeter): 29.66 inches Hg (1004.5 mb)
Winds: calm
Visibility: 1.50 miles (2.41 km)
Ceiling: 2000 feet AGL
Clouds: broken clouds at 2000 feet AGL
overcast cloud deck at 2600 feet AGL
Weather: -SN BR  (light snow, mist)

METAR text: KIDA 201653Z 35003KT 2SM R21/5000VP6000FT -SN BR BKN023 OVC030 M12/M14 A2966 RMK AO2 SNB24 SLP106 P0000 T11221144
Conditions at: KIDA (IDAHO FALLS , ID, US) observed 1653 UTC 20 February 2019
Temperature: -12.2°C (10°F)
Dewpoint: -14.4°C ( 6°F) [RH = 84%]
Pressure (altimeter): 29.66 inches Hg (1004.5 mb)
[Sea-level pressure: 1010.6 mb]
Winds: from the N (350 degrees) at 3 MPH (3 knots; 1.5 m/s)
Visibility: 2.00 miles (3.22 km)
Ceiling: 2300 feet AGL
Clouds: broken clouds at 2300 feet AGL
overcast cloud deck at 3000 feet AGL
Weather: -SN BR  (light snow, mist)

METAR text: KIDA 201637Z 34004KT 2SM -SN BR BKN030 BKN049 OVC065 M13/M15 A2967 RMK AO2 SNB24 P0000 T11281150
Conditions at: KIDA (IDAHO FALLS , ID, US) observed 1637 UTC 20 February 2019
Temperature: -12.8°C ( 9°F)
Dewpoint: -15.0°C ( 5°F) [RH = 84%]
Pressure (altimeter): 29.67 inches Hg (1004.8 mb)
Winds: from the NNW (340 degrees) at 5 MPH (4 knots; 2.1 m/s)
Visibility: 2.00 miles (3.22 km)
Ceiling: 3000 feet AGL
Clouds: broken clouds at 3000 feet AGL
broken clouds at 4900 feet AGL
overcast cloud deck at 6500 feet AGL
Weather: -SN BR  (light snow, mist)

METAR text: KIDA 201621Z 34004KT 4SM BR SCT029 BKN048 OVC090 M13/M16 A2967 RMK AO2 T11331156
Conditions at: KIDA (IDAHO FALLS , ID, US) observed 1621 UTC 20 February 2019
Temperature: -13.3°C ( 8°F)
Dewpoint: -15.6°C ( 4°F) [RH = 83%]
Pressure (altimeter): 29.67 inches Hg (1004.8 mb)
Winds: from the NNW (340 degrees) at 5 MPH (4 knots; 2.1 m/s)
Visibility: 4 miles ( 6 km)
Ceiling: 4800 feet AGL
Clouds: scattered clouds at 2900 feet AGL
broken clouds at 4800 feet AGL
overcast cloud deck at 9000 feet AGL
Weather: BR  (mist)

METAR text: KIDA 201553Z 34004KT 3SM BR OVC026 M15/M17 A2967 RMK AO2 SNE41 SLP114 VIS E-SE 2 P0000 T11501167
Conditions at: KIDA (IDAHO FALLS , ID, US) observed 1553 UTC 20 February 2019
Temperature: -15.0°C ( 5°F)
Dewpoint: -16.7°C ( 2°F) [RH = 87%]
Pressure (altimeter): 29.67 inches Hg (1004.8 mb)
[Sea-level pressure: 1011.4 mb]
Winds: from the NNW (340 degrees) at 5 MPH (4 knots; 2.1 m/s)
Visibility: 3 miles ( 5 km)
Ceiling: 2600 feet AGL
Clouds: overcast cloud deck at 2600 feet AGL
Weather: BR  (mist)

METAR text: KIDA 201519Z 36003KT 3SM -SN BR OVC027 M13/M16 A2967 RMK AO2 VIS E-SE 2 P0000 T11331156
Conditions at: KIDA (IDAHO FALLS , ID, US) observed 1519 UTC 20 February 2019
Temperature: -13.3°C ( 8°F)
Dewpoint: -15.6°C ( 4°F) [RH = 83%]
Pressure (altimeter): 29.67 inches Hg (1004.8 mb)
Winds: from the N (360 degrees) at 3 MPH (3 knots; 1.5 m/s)
Visibility: 3 miles ( 5 km)
Ceiling: 2700 feet AGL
Clouds: overcast cloud deck at 2700 feet AGL
Weather: -SN BR  (light snow, mist)

METAR text: KIDA 201516Z 01003KT 1 3/4SM -SN BR OVC027 M13/M16 A2966 RMK AO2 P0000 T11331156
Conditions at: KIDA (IDAHO FALLS , ID, US) observed 1516 UTC 20 February 2019
Temperature: -13.3°C ( 8°F)
Dewpoint: -15.6°C ( 4°F) [RH = 83%]
Pressure (altimeter): 29.66 inches Hg (1004.5 mb)
Winds: from the N (10 degrees) at 3 MPH (3 knots; 1.5 m/s)
Visibility: 1.75 miles (2.82 km)
Ceiling: 2700 feet AGL
Clouds: overcast cloud deck at 2700 feet AGL
Weather: -SN BR  (light snow, mist)

METAR text: KIDA 201453Z 02003KT 3SM -SN BR BKN019 OVC025 M13/M15 A2966 RMK AO2 SLP107 P0000 60001 T11331150 55001
Conditions at: KIDA (IDAHO FALLS , ID, US) observed 1453 UTC 20 February 2019
Temperature: -13.3°C ( 8°F)
Dewpoint: -15.0°C ( 5°F) [RH = 87%]
Pressure (altimeter): 29.66 inches Hg (1004.5 mb)
[Sea-level pressure: 1010.7 mb]
Winds: from the NNE (20 degrees) at 3 MPH (3 knots; 1.5 m/s)
Visibility: 3 miles ( 5 km)
Ceiling: 1900 feet AGL
Clouds: broken clouds at 1900 feet AGL
overcast cloud deck at 2500 feet AGL
Weather: -SN BR  (light snow, mist)

METAR text: KIDA 201421Z 00000KT 2SM -SN BR OVC019 M13/M15 A2966 RMK AO2 P0000 T11281150
Conditions at: KIDA (IDAHO FALLS , ID, US) observed 1421 UTC 20 February 2019
Temperature: -12.8°C ( 9°F)
Dewpoint: -15.0°C ( 5°F) [RH = 84%]
Pressure (altimeter): 29.66 inches Hg (1004.5 mb)
Winds: calm
Visibility: 2.00 miles (3.22 km)
Ceiling: 1900 feet AGL
Clouds: overcast cloud deck at 1900 feet AGL
Weather: -SN BR  (light snow, mist)

METAR text: KIDA 201353Z 00000KT 3SM -SN BR OVC025 M13/M14 A2965 RMK AO2 SLP103 P0000 T11281144
Conditions at: KIDA (IDAHO FALLS , ID, US) observed 1353 UTC 20 February 2019
Temperature: -12.8°C ( 9°F)
Dewpoint: -14.4°C ( 6°F) [RH = 88%]
Pressure (altimeter): 29.65 inches Hg (1004.1 mb)
[Sea-level pressure: 1010.3 mb]
Winds: calm
Visibility: 3 miles ( 5 km)
Ceiling: 2500 feet AGL
Clouds: overcast cloud deck at 2500 feet AGL
Weather: -SN BR  (light snow, mist)

Forecast for: KIDA (IDAHO FALLS , ID, US)
Text: KIDA 212321Z 2200/2224 01011KT P6SM SCT200
Forecast period: 0000 to 0200 UTC 22 February 2019
Forecast type: FROM: standard forecast or significant change
Winds: from the N (10 degrees) at 13 MPH (11 knots; 5.7 m/s)
Visibility: 6 or more miles 10+ km)
Ceiling: at least 12,000 feet AGL
Clouds: scattered clouds at 20000 feet AGL
Weather: no significant weather forecast for this period
Text: FM220200 35009KT P6SM SKC
Forecast period: 0200 UTC 22 February 2019 to 0000 UTC 23 February 2019
Forecast type: FROM: standard forecast or significant change
Winds: from the N (350 degrees) at 10 MPH (9 knots; 4.6 m/s)
Visibility: 6 or more miles 10+ km)
Clouds: clear skies
Weather: no significant weather forecast for this period